KNRB/NRB METAR and TAF weather

Enter ICAO airport designator
Station Type Date Time Source
KNRB METAR 2018/12/15 01:52 UTC NOAA

KNRB 150152Z AUTO 14010KT 4SM RA BR SCT080 BKN090 OVC110 18/17 A2999 RMK AO2 SLP154 P0014 T01780172


Station Type Date Time Source
KNRB Decoded METAR 2018/12/15 01:52 UTC NOAA

MAYPORT NAVAL AIR FACILITY, FL, United States (KNRB) 30-24N 81-25W 4M
Dec 14, 2018 - 08:52 PM EST / 2018.12.15 0152 UTC
Wind: from the SE (140 degrees) at 12 MPH (10 KT):0
Visibility: 4 mile(s):0
Sky conditions: overcast
Weather: rain; mist
Precipitation last hour: 0.14 inches
Temperature: 64.0 F (17.8 C)
Dew Point: 63.0 F (17.2 C)
Relative Humidity: 96%
Pressure (altimeter): 29.99 in. Hg (1015 hPa)
ob: KNRB 150152Z AUTO 14010KT 4SM RA BR SCT080 BKN090 OVC110 18/17 A2999 RMK AO2 SLP154 P0014 T01780172
cycle: 2

Station Type Date Time Source
KNRB TAF 2018/12/14 23:57 UTC NOAA

TAF KNRB 1423/1523 20010KT 6000 -RA VCTS SCT005 BKN035CB OVC100 520005 QNH2995INS
TEMPO 1423/1502 VRB25G40KT 0800 TSRA BKN005 OVC020CB
FM150300 25008KT 4000 -RA BR BKN005 OVC010 500000 QNH2990INS
FM151100 22010KT 9999 VCSH SCT010 BKN020 OVC100 QNH2994INS
FM151900 24010G15KT 9999 SCT020 BKN100 OVC250 QNH2996INS AUTOMATED SENSOR METWATCH 1423 TIL 1710 T15/1509Z T20/1519Z FN20022


Example: see airport list